createdAt,value
2019-02-05T00:00:54.887Z,57.73
2019-02-05T00:03:45.636Z,57.38
2019-02-05T00:06:35.427Z,57.85
2019-02-05T00:09:25.506Z,58.42
2019-02-05T00:12:14.758Z,57.33
2019-02-05T00:15:04.598Z,57.93
2019-02-05T00:17:55.629Z,57.27
2019-02-05T00:20:46.507Z,57.95
2019-02-05T00:23:36.626Z,56.71
2019-02-05T00:26:26.793Z,57.93
2019-02-05T00:29:17.003Z,57.74
2019-02-05T00:32:06.879Z,57.38
2019-02-05T00:34:56.962Z,56.63
2019-02-05T00:37:46.760Z,56.76
2019-02-05T00:40:37.184Z,56.82
2019-02-05T00:43:28.514Z,56.22
2019-02-05T00:46:18.678Z,56.43
2019-02-05T00:49:10.087Z,57.13
2019-02-05T00:52:00.508Z,56.99
2019-02-05T00:54:50.700Z,56.96
2019-02-05T00:57:40.886Z,56.93
2019-02-05T01:00:34.570Z,57.11
2019-02-05T01:03:24.729Z,56.64
2019-02-05T01:06:14.732Z,57.08
2019-02-05T01:09:09.064Z,57.48
2019-02-05T01:11:59.315Z,57.40
2019-02-05T01:14:48.840Z,57.19
2019-02-05T01:17:38.683Z,56.99
2019-02-05T01:20:28.942Z,57.35
2019-02-05T01:23:18.676Z,57.75
2019-02-05T01:26:08.328Z,57.87
2019-02-05T01:28:58.728Z,57.87
2019-02-05T01:31:48.296Z,58.35
2019-02-05T01:34:38.361Z,58.03
2019-02-05T01:37:28.529Z,58.11
2019-02-05T01:40:21.091Z,58.25
2019-02-05T01:43:10.377Z,58.02
2019-02-05T01:45:59.878Z,57.99
2019-02-05T01:48:50.027Z,57.32
2019-02-05T01:51:40.169Z,57.75
2019-02-05T01:54:29.815Z,57.70
2019-02-05T01:57:20.002Z,57.13
2019-02-05T02:00:14.880Z,57.46
2019-02-05T02:03:05.788Z,57.14
2019-02-05T02:05:55.839Z,58.00
2019-02-05T02:08:46.378Z,58.41
2019-02-05T02:11:36.837Z,58.49
2019-02-05T02:14:27.027Z,59.06
2019-02-05T02:17:17.047Z,58.38
2019-02-05T02:20:10.483Z,59.14
2019-02-05T02:23:00.350Z,58.97
2019-02-05T02:25:50.302Z,59.02
2019-02-05T02:28:40.255Z,59.06
2019-02-05T02:31:29.359Z,59.30
2019-02-05T02:34:19.795Z,59.25
2019-02-05T02:37:10.099Z,59.23
2019-02-05T02:40:00.490Z,59.47
2019-02-05T02:42:51.373Z,59.44
2019-02-05T02:45:41.232Z,58.89
2019-02-05T02:48:31.959Z,58.81
2019-02-05T02:51:22.508Z,59.09
2019-02-05T02:54:12.046Z,59.21
2019-02-05T02:57:04.839Z,59.50
2019-02-05T02:59:53.491Z,59.37
2019-02-05T03:02:43.569Z,59.32
2019-02-05T03:05:34.737Z,59.92
2019-02-05T03:08:24.920Z,59.97
2019-02-05T03:11:15.260Z,59.13
2019-02-05T03:14:05.609Z,59.19
2019-02-05T03:16:55.301Z,58.94
2019-02-05T03:19:44.998Z,58.81
2019-02-05T03:22:34.863Z,58.40
2019-02-05T03:25:25.813Z,58.69
2019-02-05T03:28:15.634Z,58.40
2019-02-05T03:31:05.256Z,58.43
2019-02-05T03:33:55.120Z,57.96
2019-02-05T03:36:45.266Z,58.18
2019-02-05T03:39:35.365Z,57.24
2019-02-05T03:42:25.339Z,57.21
2019-02-05T03:45:17.137Z,57.66
2019-02-05T03:48:08.109Z,57.89
2019-02-05T03:51:41.902Z,58.07
2019-02-05T03:55:25.042Z,58.47
2019-02-05T03:58:49.416Z,58.65
2019-02-05T04:02:09.448Z,58.96
2019-02-05T04:05:44.789Z,59.16
2019-02-05T04:09:19.686Z,59.32
2019-02-05T04:12:52.268Z,59.08
2019-02-05T04:16:35.021Z,59.01
2019-02-05T04:20:11.464Z,58.68
2019-02-05T04:23:39.879Z,58.27
2019-02-05T04:27:15.284Z,58.07
2019-02-05T04:30:46.293Z,57.50
2019-02-05T04:34:12.354Z,57.41
2019-02-05T04:37:50.183Z,57.09
2019-02-05T04:41:17.371Z,57.53
2019-02-05T04:44:53.354Z,57.53
2019-02-05T04:48:35.374Z,57.65
2019-02-05T04:52:17.465Z,57.59
2019-02-05T04:55:27.736Z,58.15
2019-02-05T04:59:02.670Z,58.47
2019-02-05T05:02:45.398Z,58.22
2019-02-05T05:06:01.988Z,58.64
2019-02-05T05:09:35.086Z,58.57
2019-02-05T05:12:25.253Z,58.52
2019-02-05T05:15:15.129Z,58.25
2019-02-05T05:18:05.164Z,57.94
2019-02-05T05:20:55.124Z,57.92
2019-02-05T05:23:45.460Z,57.78
2019-02-05T05:26:36.090Z,57.96
2019-02-05T05:29:26.163Z,57.72
2019-02-05T05:32:16.243Z,57.54
2019-02-05T05:35:07.918Z,58.07
2019-02-05T05:37:57.659Z,58.01
2019-02-05T05:40:48.443Z,57.73
2019-02-05T05:43:38.254Z,57.62
2019-02-05T05:46:28.780Z,57.48
2019-02-05T05:49:19.388Z,57.35
2019-02-05T05:52:09.505Z,57.42
2019-02-05T05:54:59.287Z,57.16
2019-02-05T05:57:49.347Z,56.96
2019-02-05T06:00:39.247Z,56.80
2019-02-05T06:03:29.080Z,56.71
2019-02-05T06:06:19.070Z,56.16
2019-02-05T06:09:10.298Z,56.45
2019-02-05T06:12:00.531Z,56.41
2019-02-05T06:14:50.610Z,56.26
2019-02-05T06:17:41.604Z,56.51
2019-02-05T06:20:31.856Z,56.95
2019-02-05T06:23:22.136Z,56.70
2019-02-05T06:26:12.759Z,56.53
2019-02-05T06:29:03.092Z,56.67
2019-02-05T06:31:53.062Z,56.56
2019-02-05T06:34:43.350Z,56.28
2019-02-05T06:37:33.170Z,56.54
2019-02-05T06:40:23.899Z,56.47
2019-02-05T06:43:14.606Z,55.78
2019-02-05T06:46:05.035Z,55.84
2019-02-05T06:48:55.517Z,56.07
2019-02-05T06:51:45.296Z,55.65
2019-02-05T06:54:35.331Z,56.40
2019-02-05T06:57:25.357Z,55.39
2019-02-05T07:00:21.673Z,54.99
2019-02-05T07:03:11.864Z,55.14
2019-02-05T07:06:01.527Z,54.56
2019-02-05T07:08:51.631Z,54.40
2019-02-05T07:11:42.004Z,54.54
2019-02-05T07:14:32.030Z,54.76
2019-02-05T07:17:21.168Z,55.00
2019-02-05T07:20:12.600Z,54.75
2019-02-05T07:23:02.909Z,54.37
2019-02-05T07:25:52.635Z,54.22
2019-02-05T07:28:43.752Z,53.75
2019-02-05T07:31:33.624Z,54.28
2019-02-05T07:34:24.323Z,54.64
2019-02-05T07:37:13.913Z,53.80
2019-02-05T07:40:03.860Z,54.38
2019-02-05T07:42:54.308Z,54.90
2019-02-05T07:45:44.722Z,54.67
2019-02-05T07:48:35.020Z,54.46
2019-02-05T07:51:25.482Z,55.25
2019-02-05T07:54:14.848Z,55.02
2019-02-05T07:57:04.307Z,55.50
2019-02-05T07:59:54.184Z,55.54
2019-02-05T08:02:44.680Z,55.24
2019-02-05T08:05:34.716Z,54.79
2019-02-05T08:08:24.667Z,54.90
2019-02-05T08:11:15.261Z,54.96
2019-02-05T08:14:06.891Z,54.59
2019-02-05T08:16:57.148Z,54.96
2019-02-05T08:19:47.129Z,55.23
2019-02-05T08:22:37.366Z,55.47
2019-02-05T08:25:27.427Z,54.54
2019-02-05T08:28:17.324Z,54.96
2019-02-05T08:31:07.917Z,55.27
2019-02-05T08:33:57.498Z,55.23
2019-02-05T08:36:47.287Z,54.79
2019-02-05T08:39:37.781Z,54.89
2019-02-05T08:42:27.734Z,54.40
2019-02-05T08:45:20.956Z,54.66
2019-02-05T08:48:12.447Z,54.34
2019-02-05T08:51:02.331Z,54.47
2019-02-05T08:53:52.149Z,54.21
2019-02-05T08:56:42.090Z,53.71
2019-02-05T08:59:32.197Z,53.77
2019-02-05T09:02:21.612Z,54.20
2019-02-05T09:05:11.730Z,53.92
2019-02-05T09:08:01.412Z,53.79
2019-02-05T09:10:51.769Z,53.95
2019-02-05T09:13:41.653Z,54.36
2019-02-05T09:16:31.207Z,53.95
2019-02-05T09:19:22.501Z,54.16
2019-02-05T09:22:12.153Z,54.57
2019-02-05T09:25:02.193Z,54.59
2019-02-05T09:27:51.982Z,54.69
2019-02-05T09:30:42.496Z,54.31
2019-02-05T09:33:32.549Z,54.59
2019-02-05T09:36:22.221Z,54.48
2019-02-05T09:39:12.309Z,54.80
2019-02-05T09:42:02.745Z,54.70
2019-02-05T09:44:52.681Z,54.59
2019-02-05T09:47:42.850Z,54.87
2019-02-05T09:50:44.233Z,54.90
2019-02-05T09:53:24.915Z,54.83
2019-02-05T09:56:14.601Z,54.64
2019-02-05T09:59:05.152Z,54.67
2019-02-05T10:01:55.308Z,54.83
2019-02-05T10:04:45.291Z,54.85
2019-02-05T10:07:35.427Z,55.03
2019-02-05T10:10:25.360Z,54.90
2019-02-05T10:13:15.214Z,55.04
2019-02-05T10:16:05.409Z,54.91
2019-02-05T10:18:55.206Z,55.16
2019-02-05T10:21:45.429Z,55.33
2019-02-05T10:24:35.473Z,54.67
2019-02-05T10:27:25.811Z,55.19
2019-02-05T10:30:23.916Z,55.92
2019-02-05T10:33:14.230Z,56.07
2019-02-05T10:36:04.719Z,56.56
2019-02-05T10:38:54.608Z,56.74
2019-02-05T10:41:45.054Z,56.20
2019-02-05T10:44:35.150Z,56.65
2019-02-05T10:47:25.196Z,56.78
2019-02-05T10:50:17.015Z,57.01
2019-02-05T10:53:07.050Z,57.32
2019-02-05T10:55:56.871Z,57.63
2019-02-05T10:58:46.766Z,57.80
2019-02-05T11:01:37.090Z,57.99
2019-02-05T11:04:26.471Z,58.03
2019-02-05T11:07:16.170Z,58.17
2019-02-05T11:10:08.344Z,58.12
2019-02-05T11:12:58.298Z,58.34
2019-02-05T11:15:48.384Z,58.60
2019-02-05T11:18:38.742Z,58.57
2019-02-05T11:21:28.320Z,58.71
2019-02-05T11:24:18.518Z,58.79
2019-02-05T11:27:08.821Z,58.65
2019-02-05T11:29:58.938Z,58.64
2019-02-05T11:32:49.078Z,58.83
2019-02-05T11:35:39.499Z,58.94
2019-02-05T11:38:29.567Z,59.31
2019-02-05T11:41:19.625Z,59.68
2019-02-05T11:44:10.715Z,59.77
2019-02-05T11:47:00.493Z,59.78
2019-02-05T11:49:50.378Z,59.73
2019-02-05T11:52:40.482Z,59.84
2019-02-05T11:55:32.590Z,59.61
2019-02-05T11:58:22.507Z,59.55
2019-02-05T12:01:16.657Z,59.53
2019-02-05T12:04:06.706Z,59.21
2019-02-05T12:06:56.831Z,59.51
2019-02-05T12:09:47.727Z,59.25
2019-02-05T12:12:37.945Z,59.34
2019-02-05T12:15:28.378Z,59.23
2019-02-05T12:18:18.136Z,58.88
2019-02-05T12:21:08.612Z,58.71
2019-02-05T12:23:58.708Z,58.29
2019-02-05T12:26:48.777Z,58.39
2019-02-05T12:29:38.354Z,58.29
2019-02-05T12:32:28.439Z,58.28
2019-02-05T12:35:18.501Z,58.13
2019-02-05T12:38:09.290Z,57.89
2019-02-05T12:40:59.004Z,57.42
2019-02-05T12:43:48.657Z,57.20
2019-02-05T12:46:38.632Z,56.92
2019-02-05T12:49:28.431Z,57.23
2019-02-05T12:52:19.204Z,56.78
2019-02-05T12:55:13.623Z,56.90
2019-02-05T12:58:01.612Z,57.19
2019-02-05T13:00:59.047Z,56.65
2019-02-05T13:03:45.691Z,56.84
2019-02-05T13:06:36.210Z,57.05
2019-02-05T13:09:26.672Z,57.06
2019-02-05T13:12:16.201Z,57.15
2019-02-05T13:15:07.633Z,56.65
2019-02-05T13:17:57.780Z,56.52
2019-02-05T13:20:48.692Z,56.93
2019-02-05T13:23:38.708Z,56.49
2019-02-05T13:26:28.756Z,56.53
2019-02-05T13:29:18.672Z,56.88
2019-02-05T13:32:08.770Z,56.73
2019-02-05T13:34:58.911Z,56.93
2019-02-05T13:37:49.107Z,56.36
2019-02-05T13:40:39.805Z,56.27
2019-02-05T13:43:30.090Z,56.15
2019-02-05T13:46:19.983Z,56.68
2019-02-05T13:49:09.912Z,56.42
2019-02-05T13:52:00.112Z,56.41
2019-02-05T13:54:50.157Z,56.26
2019-02-05T13:57:40.046Z,56.59
2019-02-05T14:00:33.533Z,56.74
2019-02-05T14:03:24.623Z,56.82
2019-02-05T14:06:14.340Z,56.89
2019-02-05T14:09:10.696Z,56.98
2019-02-05T14:11:56.739Z,56.99
2019-02-05T14:14:47.038Z,56.55
2019-02-05T14:17:36.625Z,56.75
2019-02-05T14:20:26.954Z,57.06
2019-02-05T14:23:17.071Z,56.58
2019-02-05T14:26:07.177Z,57.06
2019-02-05T14:28:56.609Z,57.20
2019-02-05T14:31:46.737Z,57.41
2019-02-05T14:34:36.840Z,57.35
2019-02-05T14:37:26.507Z,57.28
2019-02-05T14:40:18.842Z,57.44
2019-02-05T14:43:09.420Z,57.34
2019-02-05T14:45:59.402Z,57.44
2019-02-05T14:48:49.536Z,57.61
2019-02-05T14:51:39.510Z,57.90
2019-02-05T14:54:29.262Z,57.90
2019-02-05T14:57:19.340Z,57.95
2019-02-05T15:00:15.706Z,58.02
2019-02-05T15:03:07.509Z,58.11
2019-02-05T15:05:57.583Z,58.25
2019-02-05T15:08:47.559Z,58.19
2019-02-05T15:11:37.645Z,58.31
2019-02-05T15:14:27.713Z,58.41
2019-02-05T15:17:17.868Z,58.42
2019-02-05T15:20:19.718Z,58.33
2019-02-05T15:23:10.398Z,58.40
2019-02-05T15:26:00.571Z,58.73
2019-02-05T15:28:50.648Z,58.85
2019-02-05T15:31:40.573Z,58.91
2019-02-05T15:34:30.874Z,58.98
2019-02-05T15:37:20.952Z,59.09
2019-02-05T15:40:12.666Z,58.97
2019-02-05T15:43:02.148Z,59.13
2019-02-05T15:45:51.846Z,59.15
2019-02-05T15:48:42.866Z,59.30
2019-02-05T15:51:32.771Z,59.35
2019-02-05T15:54:22.205Z,59.41
2019-02-05T15:57:12.359Z,59.39
2019-02-05T16:00:03.583Z,59.48
2019-02-05T16:02:54.733Z,59.55
2019-02-05T16:05:45.109Z,59.26
2019-02-05T16:08:35.196Z,59.26
2019-02-05T16:11:25.335Z,59.46
2019-02-05T16:14:15.560Z,59.36
2019-02-05T16:17:05.763Z,59.47
2019-02-05T16:19:55.743Z,59.57
2019-02-05T16:22:45.846Z,59.49
2019-02-05T16:25:38.755Z,59.69
2019-02-05T16:28:28.590Z,59.70
2019-02-05T16:31:18.770Z,59.67
2019-02-05T16:34:08.791Z,59.46
2019-02-05T16:36:58.966Z,59.58
2019-02-05T16:39:49.023Z,59.66
2019-02-05T16:42:38.947Z,59.61
2019-02-05T16:45:29.438Z,59.68
2019-02-05T16:48:19.137Z,59.71
2019-02-05T16:51:09.299Z,59.78
2019-02-05T16:53:59.285Z,59.73
2019-02-05T16:56:48.745Z,59.86
2019-02-05T16:59:38.447Z,59.93
2019-02-05T17:02:29.213Z,59.97
2019-02-05T17:05:19.877Z,59.83
2019-02-05T17:08:09.727Z,59.94
2019-02-05T17:10:59.077Z,60.05
2019-02-05T17:13:49.208Z,59.98
2019-02-05T17:16:39.183Z,60.13
2019-02-05T17:19:31.748Z,60.15
2019-02-05T17:22:20.721Z,60.19
2019-02-05T17:25:13.667Z,60.32
2019-02-05T17:28:04.991Z,60.34
2019-02-05T17:30:54.264Z,60.30
2019-02-05T17:33:43.499Z,60.33
2019-02-05T17:36:33.684Z,60.40
2019-02-05T17:39:23.131Z,60.40
2019-02-05T17:42:12.743Z,60.44
2019-02-05T17:45:03.040Z,60.46
2019-02-05T17:47:53.620Z,60.50
2019-02-05T17:50:43.351Z,60.52
2019-02-05T17:53:32.966Z,60.53
2019-02-05T17:56:23.013Z,60.53
2019-02-05T17:59:13.454Z,60.51
2019-02-05T18:02:03.393Z,60.58
2019-02-05T18:04:52.830Z,60.54
2019-02-05T18:07:42.412Z,60.60
2019-02-05T18:10:32.212Z,60.65
2019-02-05T18:13:22.296Z,60.71
2019-02-05T18:16:15.954Z,60.72
2019-02-05T18:19:05.985Z,60.76
2019-02-05T18:21:55.486Z,60.84
2019-02-05T18:24:45.225Z,60.82
2019-02-05T18:27:34.627Z,60.88
2019-02-05T18:30:28.272Z,60.92
2019-02-05T18:33:18.195Z,60.96
2019-02-05T18:36:08.185Z,60.99
2019-02-05T18:38:58.345Z,61.04
2019-02-05T18:41:48.505Z,61.20
2019-02-05T18:44:38.559Z,61.28
2019-02-05T18:47:28.423Z,61.36
2019-02-05T18:50:25.056Z,61.27
2019-02-05T18:53:14.456Z,61.29
2019-02-05T18:56:04.935Z,61.35
2019-02-05T18:58:54.911Z,61.38
2019-02-05T19:01:45.232Z,61.43
2019-02-05T19:04:35.614Z,61.46
2019-02-05T19:07:25.606Z,61.50
2019-02-05T19:10:16.837Z,61.55
2019-02-05T19:13:07.172Z,61.61
2019-02-05T19:15:56.834Z,61.67
2019-02-05T19:18:46.110Z,61.83
2019-02-05T19:21:36.109Z,61.94
2019-02-05T19:24:45.991Z,62.04
2019-02-05T19:27:36.420Z,62.11
2019-02-05T19:30:29.087Z,62.24
2019-02-05T19:33:26.870Z,62.37
2019-02-05T19:36:10.748Z,62.46
2019-02-05T19:39:00.864Z,62.49
2019-02-05T19:41:55.743Z,62.46
2019-02-05T19:44:52.782Z,62.26
2019-02-05T19:47:42.353Z,62.53
2019-02-05T19:50:31.785Z,62.57
2019-02-05T19:53:21.527Z,62.57
2019-02-05T19:56:14.468Z,62.55
2019-02-05T19:59:02.997Z,62.62
2019-02-05T20:01:53.440Z,62.63
2019-02-05T20:04:43.342Z,62.61
2019-02-05T20:07:32.653Z,62.66
2019-02-05T20:10:22.099Z,62.67
2019-02-05T20:13:11.895Z,62.73
2019-02-05T20:16:02.135Z,62.83
2019-02-05T20:18:52.255Z,62.83
2019-02-05T20:21:41.276Z,62.81
2019-02-05T20:24:30.896Z,62.72
2019-02-05T20:27:20.870Z,62.63
2019-02-05T20:30:14.488Z,62.56
2019-02-05T20:33:04.275Z,62.66
2019-02-05T20:35:56.229Z,62.71
2019-02-05T20:38:45.945Z,62.71
2019-02-05T20:41:35.635Z,62.68
2019-02-05T20:44:25.796Z,62.68
2019-02-05T20:47:16.169Z,62.71
2019-02-05T20:50:09.701Z,62.70
2019-02-05T20:52:59.257Z,62.73
2019-02-05T20:55:55.656Z,62.77
2019-02-05T20:58:47.539Z,62.89
2019-02-05T21:01:37.630Z,63.01
2019-02-05T21:04:29.623Z,63.09
2019-02-05T21:07:22.568Z,63.09
2019-02-05T21:10:17.895Z,63.11
2019-02-05T21:13:07.382Z,63.17
2019-02-05T21:15:57.120Z,63.16
2019-02-05T21:18:47.490Z,63.14
2019-02-05T21:21:37.310Z,63.18
2019-02-05T21:24:27.871Z,63.21
2019-02-05T21:27:17.782Z,63.29
2019-02-05T21:30:11.122Z,63.32
2019-02-05T21:33:02.217Z,63.37
2019-02-05T21:35:52.405Z,63.33
2019-02-05T21:38:45.340Z,63.32
2019-02-05T21:41:33.694Z,63.39
2019-02-05T21:44:23.033Z,63.50
2019-02-05T21:47:12.982Z,63.50
2019-02-05T21:50:02.827Z,63.52
2019-02-05T21:52:52.897Z,63.51
2019-02-05T21:55:42.870Z,63.57
2019-02-05T21:58:32.787Z,63.54
2019-02-05T22:01:22.841Z,63.54
2019-02-05T22:04:12.759Z,63.54
2019-02-05T22:07:03.564Z,63.55
2019-02-05T22:09:53.347Z,63.60
2019-02-05T22:12:43.498Z,63.55
2019-02-05T22:15:33.845Z,63.61
2019-02-05T22:18:23.630Z,63.62
2019-02-05T22:21:13.568Z,63.55
2019-02-05T22:24:03.479Z,63.54
2019-02-05T22:26:53.379Z,63.56
2019-02-05T22:29:43.159Z,63.62
2019-02-05T22:32:32.927Z,63.67
2019-02-05T22:35:22.909Z,63.68
2019-02-05T22:38:13.198Z,63.77
2019-02-05T22:41:03.174Z,63.75
2019-02-05T22:43:53.167Z,63.74
2019-02-05T22:46:43.462Z,63.68
2019-02-05T22:49:34.052Z,63.70
2019-02-05T22:52:25.976Z,63.65
2019-02-05T22:55:16.254Z,63.56
2019-02-05T22:58:06.788Z,63.56
2019-02-05T23:01:38.163Z,63.54
2019-02-05T23:05:46.438Z,63.53
2019-02-05T23:08:36.438Z,63.48
2019-02-05T23:12:02.979Z,63.57
2019-02-05T23:14:59.082Z,63.56
2019-02-05T23:17:49.313Z,63.52
2019-02-05T23:20:39.188Z,63.37
2019-02-05T23:23:29.271Z,63.29
2019-02-05T23:26:19.427Z,63.04
2019-02-05T23:29:09.582Z,62.83
2019-02-05T23:31:59.562Z,62.90
2019-02-05T23:34:49.999Z,62.86
2019-02-05T23:37:39.826Z,63.00
2019-02-05T23:40:29.507Z,62.82
2019-02-05T23:43:19.646Z,62.40
2019-02-05T23:46:10.252Z,62.54
2019-02-05T23:49:00.370Z,62.55
2019-02-05T23:51:50.614Z,62.50
2019-02-05T23:54:40.566Z,62.44
2019-02-05T23:57:30.244Z,62.46
